Terminal Aerodrome Forecast
Issued by NWS Wilmington, OH

Current Version | Previous Version | Graphics & Text | Print | Product List | Glossary On
Versions: 1 2 3 4 5 6 7 8 9 10 11 12 13 14 15
713
FTUS41 KILN 121123
TAFILN
TAF
KILN 121123Z 1212/1312 19006KT P6SM FEW040 OVC080
     FM121700 24010KT P6SM SCT018 OVC050
     FM122100 27012G22KT 5SM -SHSN OVC018
     FM130000 30018G28KT 2SM -SHSN OVC018
     FM130400 31014G24KT 4SM -SHSN OVC025=

USA.gov is the U.S. government's official web portal to all federal, state and local government web resources and services.